Time;durP1;ratioP1;P1;durP2;ratioP2;P2;SDS_P1;SDS_P2;PMS_P1;PMS_P2;Temp;Humidity;BMP_temperature;BMP_pressure;BME280_temperature;BME280_humidity;BME280_pressure;Samples;Min_cycle;Max_cycle;Signal;HPM_P1;HPM_P2
2023/02/16 00:00:06;;;;;;;55.15;26.30;;;;;;;-1.06;100.00;100275.16;5043390;28;20428;-59
2023/02/16 00:02:32;;;;;;;60.20;26.10;;;;;;;-1.19;100.00;100270.22;5047585;28;20537;-59
2023/02/16 00:04:57;;;;;;;56.70;26.58;;;;;;;-1.17;100.00;100281.44;5038300;28;20024;-59
2023/02/16 00:07:23;;;;;;;57.22;24.95;;;;;;;-1.16;100.00;100287.53;5043650;28;20033;-59
2023/02/16 00:09:48;;;;;;;63.38;27.05;;;;;;;-1.19;100.00;100286.00;5042630;28;20368;-59
2023/02/16 00:15:16;;;;;;;52.20;24.42;;;;;;;-1.26;100.00;100290.16;5072504;28;20143;-59
2023/02/16 00:17:42;;;;;;;47.80;23.20;;;;;;;-1.57;100.00;100285.06;5048370;28;20903;-58
2023/02/16 00:20:14;;;;;;;57.10;24.05;;;;;;;-1.37;100.00;100287.69;5041617;28;20020;-59
2023/02/16 00:22:39;;;;;;;58.90;28.05;;;;;;;-1.50;100.00;100282.69;5030260;28;20025;-59
2023/02/16 00:25:05;;;;;;;71.03;31.42;;;;;;;-1.43;100.00;100282.97;5045807;28;20028;-59
2023/02/16 00:27:30;;;;;;;70.18;29.00;;;;;;;-1.53;100.00;100273.28;5042486;28;20025;-59
2023/02/16 00:29:55;;;;;;;65.65;29.95;;;;;;;-1.56;100.00;100280.63;5039061;28;20457;-59
2023/02/16 00:32:21;;;;;;;65.85;27.98;;;;;;;-1.52;100.00;100274.97;5037657;28;20037;-59
2023/02/16 00:34:46;;;;;;;67.13;28.13;;;;;;;-1.42;100.00;100269.69;5039932;28;20056;-60
2023/02/16 00:37:12;;;;;;;66.22;26.35;;;;;;;-1.25;100.00;100264.69;5040704;28;20021;-59
2023/02/16 00:39:38;;;;;;;68.43;27.17;;;;;;;-1.34;100.00;100261.09;5036975;28;20514;-59
2023/02/16 00:42:25;;;;;;;66.72;27.92;;;;;;;-1.47;100.00;100258.75;5046201;28;20070;-59
2023/02/16 00:44:51;;;;;;;63.17;27.77;;;;;;;-1.54;100.00;100266.38;5044569;28;20133;-59
2023/02/16 00:47:38;;;;;;;57.90;25.48;;;;;;;-1.68;100.00;100256.25;5034185;28;20043;-59
2023/02/16 00:50:17;;;;;;;48.67;22.50;;;;;;;-1.62;100.00;100245.22;5042387;28;20560;-59
2023/02/16 00:52:44;;;;;;;53.83;25.75;;;;;;;-1.68;100.00;100253.63;5035291;28;20119;-59
2023/02/16 00:55:12;;;;;;;52.45;23.83;;;;;;;-1.61;100.00;100257.38;5041343;28;20021;-59
2023/02/16 00:57:49;;;;;;;52.65;23.27;;;;;;;-1.95;100.00;100272.69;5042731;28;20041;-59
2023/02/16 01:00:28;;;;;;;57.00;24.58;;;;;;;-2.02;100.00;100266.31;5044626;28;20039;-59
2023/02/16 01:02:56;;;;;;;36.42;18.20;;;;;;;-2.25;100.00;100252.59;5040402;28;20082;-59
2023/02/16 01:05:22;;;;;;;67.90;27.25;;;;;;;-1.87;100.00;100253.63;5044809;28;20047;-59
2023/02/16 01:13:15;;;;;;;21.27;11.48;;;;;;;-2.10;100.00;100266.19;5040768;28;20407;-59
2023/02/16 01:15:41;;;;;;;65.80;26.15;;;;;;;-1.93;100.00;100262.06;5042588;28;20037;-59
2023/02/16 01:18:06;;;;;;;69.53;28.15;;;;;;;-1.96;100.00;100257.91;5038161;28;20103;-59
2023/02/16 01:20:34;;;;;;;61.03;25.25;;;;;;;-1.94;100.00;100255.16;5046556;28;20032;-59
2023/02/16 01:23:00;;;;;;;65.65;28.05;;;;;;;-1.78;100.00;100252.81;5025939;28;20052;-59
2023/02/16 01:25:25;;;;;;;59.03;26.45;;;;;;;-1.83;100.00;100268.16;5023460;28;20514;-59
2023/02/16 01:27:51;;;;;;;73.45;27.63;;;;;;;-1.83;100.00;100273.41;5037906;28;20120;-59
2023/02/16 01:30:18;;;;;;;59.28;24.92;;;;;;;-1.97;100.00;100269.41;5039368;28;20420;-59
2023/02/16 01:32:50;;;;;;;55.45;23.75;;;;;;;-2.09;100.00;100271.31;5046028;28;20032;-59
2023/02/16 01:35:17;;;;;;;67.97;25.88;;;;;;;-1.81;100.00;100251.28;5034359;28;20033;-59
2023/02/16 01:37:42;;;;;;;64.20;25.90;;;;;;;-1.73;100.00;100255.84;5041768;28;20076;-60
2023/02/16 01:40:17;;;;;;;67.22;27.00;;;;;;;-1.60;100.00;100250.31;5040487;28;20456;-61
2023/02/16 01:42:50;;;;;;;62.05;28.13;;;;;;;-1.41;100.00;100252.09;5024330;28;20033;-60
2023/02/16 01:45:18;;;;;;;70.18;29.20;;;;;;;-1.24;100.00;100261.91;5038474;28;20045;-60
2023/02/16 01:47:48;;;;;;;72.40;28.92;;;;;;;-1.61;100.00;100253.91;5042063;28;20459;-59
2023/02/16 01:50:21;;;;;;;74.22;28.80;;;;;;;-1.41;100.00;100254.75;5043049;28;20163;-60
2023/02/16 01:52:51;;;;;;;69.95;28.73;;;;;;;-1.53;100.00;100252.25;5045907;28;20067;-60
2023/02/16 01:55:33;;;;;;;68.28;27.60;;;;;;;-1.73;100.00;100237.44;5035913;28;20030;-60
2023/02/16 01:58:45;;;;;;;71.85;28.27;;;;;;;-1.63;100.00;100246.16;5045863;28;20039;-60
2023/02/16 02:01:16;;;;;;;64.93;28.45;;;;;;;-1.48;100.00;100243.13;5030035;28;20029;-60
2023/02/16 02:06:32;;;;;;;77.78;28.75;;;;;;;-2.07;100.00;100237.84;5038006;28;20113;-60
2023/02/16 02:09:01;;;;;;;78.00;28.88;;;;;;;-2.09;100.00;100239.78;5039154;28;20082;-60
2023/02/16 02:11:29;;;;;;;75.63;29.52;;;;;;;-1.99;100.00;100245.88;5042800;28;20128;-60
2023/02/16 02:14:02;;;;;;;71.03;27.88;;;;;;;-2.18;100.00;100244.03;5038859;28;20048;-60
2023/02/16 02:16:27;;;;;;;63.65;26.05;;;;;;;-2.49;100.00;100243.28;5042857;28;20064;-59
2023/02/16 02:18:53;;;;;;;59.67;25.42;;;;;;;-2.58;100.00;100243.25;5035708;28;20274;-60
2023/02/16 02:24:56;;;;;;;63.92;26.27;;;;;;;-2.62;100.00;100229.56;5039176;28;20099;-60
2023/02/16 02:27:25;;;;;;;62.97;27.00;;;;;;;-2.48;100.00;100226.56;5042387;28;20482;-60
2023/02/16 02:30:07;;;;;;;65.97;25.55;;;;;;;-2.48;100.00;100234.44;5041273;28;20044;-60
2023/02/16 02:32:38;;;;;;;64.70;26.48;;;;;;;-2.46;100.00;100227.25;5025165;28;20856;-59
2023/02/16 02:35:22;;;;;;;109.47;29.15;;;;;;;-2.46;100.00;100227.25;5049052;28;20108;-60
2023/02/16 02:38:16;;;;;;;189.60;30.70;;;;;;;-2.39;100.00;100227.56;5036997;28;20025;-60
2023/02/16 02:41:00;;;;;;;134.30;27.13;;;;;;;-2.35;100.00;100234.19;5039960;28;20024;-60
2023/02/16 02:43:45;;;;;;;221.18;29.80;;;;;;;-2.38;100.00;100232.66;5040129;28;20040;-60
2023/02/16 02:46:23;;;;;;;106.65;27.80;;;;;;;-2.36;100.00;100232.53;5051292;28;20021;-60
2023/02/16 02:48:49;;;;;;;212.57;27.67;;;;;;;-2.40;100.00;100236.38;5039545;28;20048;-60
2023/02/16 02:51:30;;;;;;;230.05;26.92;;;;;;;-2.43;100.00;100237.47;5044311;28;20065;-60
2023/02/16 03:02:14;;;;;;;162.25;23.90;;;;;;;-2.40;100.00;100234.63;5043282;28;20087;-60
2023/02/16 03:04:40;;;;;;;325.88;26.70;;;;;;;-2.59;100.00;100236.34;5045600;28;20463;-60
2023/02/16 03:07:05;;;;;;;313.70;26.60;;;;;;;-2.58;100.00;100225.69;5043777;28;20465;-60
2023/02/16 03:09:31;;;;;;;172.40;24.15;;;;;;;-2.48;100.00;100234.44;5032367;28;20045;-60
2023/02/16 03:14:48;;;;;;;83.90;23.75;;;;;;;-2.50;100.00;100227.66;5059428;28;20087;-60
2023/02/16 03:31:05;;;;;;;117.75;21.42;;;;;;;-2.99;100.00;100214.34;5031023;28;20513;-60
2023/02/16 03:33:31;;;;;;;178.35;23.65;;;;;;;-3.10;100.00;100202.13;5041076;28;20030;-60
2023/02/16 03:35:57;;;;;;;158.15;22.75;;;;;;;-3.18;100.00;100203.75;5058912;28;20037;-60
2023/02/16 03:38:22;;;;;;;119.80;22.73;;;;;;;-3.06;100.00;100207.97;5070963;28;20032;-60
2023/02/16 03:40:49;;;;;;;117.30;24.50;;;;;;;-3.03;100.00;100202.47;5039795;28;20079;-60
2023/02/16 03:43:14;;;;;;;121.13;23.75;;;;;;;-3.12;100.00;100197.97;5049059;28;20029;-59
2023/02/16 03:45:41;;;;;;;166.18;25.35;;;;;;;-3.23;100.00;100198.91;5050332;28;20044;-58
2023/02/16 03:48:06;;;;;;;59.70;21.02;;;;;;;-3.25;100.00;100199.03;5042612;28;20494;-58
2023/02/16 03:50:32;;;;;;;94.43;21.95;;;;;;;-3.30;100.00;100201.22;5046687;28;20040;-58
2023/02/16 03:53:05;;;;;;;115.60;22.33;;;;;;;-3.35;100.00;100208.63;5043116;28;20034;-59
2023/02/16 03:55:38;;;;;;;131.20;23.73;;;;;;;-3.40;100.00;100199.50;5044183;28;20017;-58
2023/02/16 03:58:04;;;;;;;120.10;24.40;;;;;;;-3.40;100.00;100205.56;5046236;28;20227;-58
2023/02/16 04:00:30;;;;;;;159.43;22.83;;;;;;;-3.37;100.00;100215.81;5042882;28;20351;-58
2023/02/16 04:02:55;;;;;;;152.98;24.10;;;;;;;-3.32;100.00;100213.63;5052120;28;20039;-58
2023/02/16 04:05:21;;;;;;;117.75;20.98;;;;;;;-3.38;100.00;100211.50;5050021;28;20033;-58
2023/02/16 04:07:46;;;;;;;135.38;22.58;;;;;;;-3.35;100.00;100216.50;5042170;28;20025;-58
2023/02/16 04:10:11;;;;;;;78.30;20.42;;;;;;;-3.25;100.00;100220.00;5045768;28;20045;-58
2023/02/16 04:12:37;;;;;;;73.38;20.95;;;;;;;-3.28;100.00;100207.16;5043448;28;20045;-58
2023/02/16 04:15:08;;;;;;;273.90;24.70;;;;;;;-3.36;100.00;100214.03;5042289;28;20100;-58
2023/02/16 04:17:33;;;;;;;269.85;22.58;;;;;;;-3.51;100.00;100201.22;5044839;28;20137;-58
2023/02/16 04:19:59;;;;;;;141.32;21.15;;;;;;;-3.66;100.00;100204.31;5042613;28;20056;-58
2023/02/16 04:22:24;;;;;;;206.73;23.17;;;;;;;-3.51;100.00;100210.88;5043503;28;20439;-58
2023/02/16 04:24:49;;;;;;;151.57;23.02;;;;;;;-3.53;100.00;100215.41;5040343;28;20492;-58
2023/02/16 04:27:15;;;;;;;172.52;20.73;;;;;;;-3.58;100.00;100212.34;5050487;28;20226;-58
2023/02/16 04:29:40;;;;;;;102.38;21.25;;;;;;;-3.56;100.00;100213.06;5046865;28;20476;-58
2023/02/16 04:32:06;;;;;;;162.30;21.30;;;;;;;-3.59;100.00;100210.69;5049424;28;20068;-58
2023/02/16 04:34:31;;;;;;;61.33;20.65;;;;;;;-3.46;100.00;100206.09;5047616;28;20502;-58
2023/02/16 04:36:57;;;;;;;142.95;20.23;;;;;;;-3.53;100.00;100207.56;5035007;28;20045;-58
2023/02/16 04:39:23;;;;;;;202.93;22.10;;;;;;;-3.55;100.00;100206.84;5042309;28;20434;-59
2023/02/16 04:41:48;;;;;;;189.60;20.48;;;;;;;-3.65;100.00;100212.03;5042199;28;20041;-58
2023/02/16 04:44:14;;;;;;;176.88;20.67;;;;;;;-3.67;100.00;100220.97;5047111;28;20041;-59
2023/02/16 04:46:39;;;;;;;159.05;19.80;;;;;;;-3.59;100.00;100221.19;5047235;28;20033;-58
2023/02/16 04:49:04;;;;;;;227.32;21.33;;;;;;;-3.66;100.00;100222.66;5037101;28;20025;-59
2023/02/16 04:51:30;;;;;;;102.32;18.90;;;;;;;-3.65;100.00;100224.28;5045015;28;20033;-59
2023/02/16 04:53:55;;;;;;;183.43;20.23;;;;;;;-3.69;100.00;100211.44;5042059;28;20025;-59
2023/02/16 04:56:21;;;;;;;105.93;19.45;;;;;;;-3.75;100.00;100217.19;5046180;28;20495;-59
2023/02/16 04:58:46;;;;;;;202.10;22.45;;;;;;;-3.78;100.00;100222.69;5056549;28;20032;-59
2023/02/16 05:01:19;;;;;;;121.47;21.05;;;;;;;-3.58;100.00;100222.84;5029329;28;20033;-58
2023/02/16 05:03:44;;;;;;;184.98;20.83;;;;;;;-4.05;100.00;100214.47;5038003;28;20625;-59
2023/02/16 05:06:10;;;;;;;195.30;21.55;;;;;;;-4.35;100.00;100213.34;5039199;28;20038;-58
2023/02/16 05:08:36;;;;;;;201.75;20.80;;;;;;;-4.48;100.00;100208.25;5041356;28;20037;-59
2023/02/16 05:16:29;;;;;;;149.88;19.15;;;;;;;-4.41;100.00;100208.63;5037036;28;20124;-59
2023/02/16 05:18:55;;;;;;;247.95;20.30;;;;;;;-4.55;100.00;100209.69;5046579;28;20022;-59
2023/02/16 05:21:29;;;;;;;162.38;19.15;;;;;;;-4.38;100.00;100203.13;5045008;28;20029;-59
2023/02/16 05:23:55;;;;;;;176.80;20.88;;;;;;;-4.46;100.00;100211.59;5043843;28;20044;-59
2023/02/16 05:26:20;;;;;;;145.68;20.25;;;;;;;-4.38;100.00;100218.84;5043473;28;20107;-59
2023/02/16 05:28:46;;;;;;;165.52;19.80;;;;;;;-4.33;100.00;100216.69;5036955;28;20083;-59
2023/02/16 05:31:11;;;;;;;115.82;20.50;;;;;;;-4.27;100.00;100223.19;5054053;28;20098;-59
2023/02/16 05:33:37;;;;;;;107.00;20.25;;;;;;;-4.26;100.00;100228.31;5043133;28;20032;-59
2023/02/16 05:36:02;;;;;;;111.28;19.52;;;;;;;-4.18;100.00;100214.63;5039429;28;20021;-59
2023/02/16 05:38:28;;;;;;;203.23;22.55;;;;;;;-4.29;100.00;100228.59;5048157;28;20044;-59
2023/02/16 05:40:53;;;;;;;151.50;18.45;;;;;;;-4.27;100.00;100231.06;5044193;28;20475;-59
2023/02/16 05:43:19;;;;;;;148.02;19.38;;;;;;;-4.30;100.00;100228.69;5043303;28;20505;-60
2023/02/16 05:45:44;;;;;;;189.18;20.75;;;;;;;-4.37;100.00;100226.56;5040555;28;20404;-59
2023/02/16 05:48:10;;;;;;;181.63;21.60;;;;;;;-4.49;100.00;100230.16;5042251;28;20071;-59
2023/02/16 05:50:35;;;;;;;186.80;21.02;;;;;;;-4.51;100.00;100223.38;5042271;28;20029;-59
2023/02/16 05:53:01;;;;;;;72.65;20.58;;;;;;;-4.49;100.00;100224.06;5043005;28;20018;-59
2023/02/16 05:55:27;;;;;;;102.90;21.92;;;;;;;-4.68;100.00;100238.59;5042126;28;20041;-59
2023/02/16 05:57:52;;;;;;;83.03;21.50;;;;;;;-4.63;100.00;100231.22;5044944;28;20033;-59
2023/02/16 06:00:18;;;;;;;58.20;19.55;;;;;;;-4.72;100.00;100231.94;5037868;28;20044;-59
2023/02/16 06:02:43;;;;;;;102.88;21.67;;;;;;;-4.27;100.00;100223.19;5036608;28;20033;-59
2023/02/16 06:05:09;;;;;;;67.82;21.10;;;;;;;-4.48;100.00;100225.75;5048360;28;20395;-59
2023/02/16 06:07:34;;;;;;;56.25;22.25;;;;;;;-4.59;100.00;100226.59;5036368;28;20044;-59
2023/02/16 06:09:59;;;;;;;67.60;23.20;;;;;;;-4.57;100.00;100229.91;5043598;28;20484;-59
2023/02/16 06:12:25;;;;;;;51.47;22.30;;;;;;;-4.48;100.00;100236.22;5043294;28;20033;-59
2023/02/16 06:14:50;;;;;;;65.22;21.20;;;;;;;-4.38;100.00;100237.97;5033985;28;20491;-59
2023/02/16 06:17:16;;;;;;;70.45;20.30;;;;;;;-4.36;100.00;100230.84;5042804;28;20109;-60
2023/02/16 06:19:41;;;;;;;75.07;20.80;;;;;;;-4.54;100.00;100232.31;5051710;28;20043;-59
2023/02/16 06:22:07;;;;;;;74.40;18.75;;;;;;;-4.62;100.00;100235.53;5040872;28;20154;-59
2023/02/16 06:24:32;;;;;;;100.70;21.02;;;;;;;-4.84;100.00;100220.69;5043286;28;20143;-59
2023/02/16 06:26:58;;;;;;;46.88;20.35;;;;;;;-4.84;100.00;100232.91;5038352;28;20030;-59
2023/02/16 06:29:23;;;;;;;51.97;18.70;;;;;;;-4.71;100.00;100217.09;5040290;28;20053;-59
2023/02/16 06:31:49;;;;;;;39.47;18.55;;;;;;;-4.93;100.00;100223.16;5041479;28;20032;-59
2023/02/16 06:34:14;;;;;;;35.85;18.90;;;;;;;-4.67;100.00;100223.75;5045162;28;20056;-59
2023/02/16 06:36:39;;;;;;;43.40;19.88;;;;;;;-4.69;100.00;100229.09;5043296;28;20024;-59
2023/02/16 06:39:05;;;;;;;44.28;18.38;;;;;;;-4.61;100.00;100234.56;5035646;28;20531;-59
2023/02/16 06:41:30;;;;;;;46.40;17.90;;;;;;;-4.64;100.00;100234.81;5038874;28;20504;-59
2023/02/16 06:43:59;;;;;;;45.30;18.35;;;;;;;-4.53;100.00;100220.06;5031250;28;20037;-59
2023/02/16 06:46:25;;;;;;;53.05;20.23;;;;;;;-4.60;100.00;100219.69;5030603;28;20438;-59
2023/02/16 06:48:50;;;;;;;66.78;18.67;;;;;;;-4.80;100.00;100224.69;5042211;28;20029;-59
2023/02/16 06:51:16;;;;;;;36.97;19.33;;;;;;;-4.73;100.00;100224.22;5042504;28;20029;-59
2023/02/16 06:53:42;;;;;;;38.15;19.35;;;;;;;-4.59;100.00;100224.00;5038411;28;20040;-59
2023/02/16 06:56:07;;;;;;;36.50;19.10;;;;;;;-4.55;100.00;100220.97;5036314;28;20017;-59
2023/02/16 06:58:32;;;;;;;38.38;20.23;;;;;;;-4.46;100.00;100232.53;5036077;28;20037;-59
2023/02/16 07:00:58;;;;;;;41.85;21.30;;;;;;;-4.43;100.00;100221.81;5042257;28;20037;-58
2023/02/16 07:03:23;;;;;;;45.47;21.77;;;;;;;-4.42;100.00;100225.25;5041436;28;20041;-59
2023/02/16 07:05:49;;;;;;;57.00;23.30;;;;;;;-4.46;100.00;100224.69;5037282;28;20121;-59
2023/02/16 07:08:14;;;;;;;54.03;21.35;;;;;;;-4.35;100.00;100229.06;5041502;28;20519;-59
2023/02/16 07:10:43;;;;;;;84.03;20.52;;;;;;;-4.41;100.00;100234.78;5043730;28;20156;-59
2023/02/16 07:13:09;;;;;;;81.47;21.45;;;;;;;-4.47;100.00;100236.06;5043106;28;20542;-59
2023/02/16 07:15:34;;;;;;;77.63;19.95;;;;;;;-4.45;100.00;100235.97;5040224;28;20033;-59
2023/02/16 07:18:00;;;;;;;56.92;18.63;;;;;;;-4.50;100.00;100228.47;5047708;28;20064;-59
2023/02/16 07:20:26;;;;;;;35.05;18.33;;;;;;;-4.23;100.00;100233.31;5049952;28;20647;-59
2023/02/16 07:22:51;;;;;;;39.50;20.27;;;;;;;-3.25;100.00;100227.88;5055037;28;20060;-59
2023/02/16 07:25:17;;;;;;;41.15;21.45;;;;;;;-2.42;100.00;100227.81;5050271;28;20041;-59
2023/02/16 07:27:42;;;;;;;39.08;21.58;;;;;;;-2.46;100.00;100227.25;5044525;28;20032;-59
2023/02/16 07:30:09;;;;;;;42.67;22.65;;;;;;;-2.49;100.00;100219.66;5035930;28;20364;-59
2023/02/16 07:32:35;;;;;;;39.58;21.30;;;;;;;-1.94;100.00;100226.25;5062360;28;20029;-59
2023/02/16 07:35:00;;;;;;;47.88;23.75;;;;;;;-1.62;100.00;100231.22;5043033;28;20041;-59
2023/02/16 07:37:26;;;;;;;39.20;21.92;;;;;;;-1.28;100.00;100242.13;5044396;28;20033;-60
2023/02/16 07:39:52;;;;;;;39.25;22.05;;;;;;;-0.79;100.00;100244.63;5037805;28;20722;-59
2023/02/16 07:42:18;;;;;;;34.40;20.45;;;;;;;-0.64;100.00;100237.91;5042404;28;20431;-59
2023/02/16 07:44:44;;;;;;;40.45;19.67;;;;;;;-0.79;100.00;100252.53;5041380;28;20475;-59
2023/02/16 07:47:09;;;;;;;53.50;16.60;;;;;;;-1.82;100.00;100257.53;5041942;28;20018;-59
2023/02/16 07:49:34;;;;;;;81.80;18.45;;;;;;;-1.99;100.00;100243.25;5075280;28;20040;-59
2023/02/16 07:52:00;;;;;;;57.45;18.45;;;;;;;-1.05;100.00;100252.31;5045535;28;20029;-59
2023/02/16 07:54:25;;;;;;;47.70;17.25;;;;;;;-1.05;100.00;100260.22;5036073;28;20036;-59
2023/02/16 07:56:51;;;;;;;45.08;18.98;;;;;;;-0.60;100.00;100259.50;5034499;28;20475;-59
2023/02/16 07:59:16;;;;;;;41.25;18.92;;;;;;;-0.53;97.46;100263.22;5046014;28;20357;-59
2023/02/16 08:01:42;;;;;;;41.88;18.05;;;;;;;0.03;96.78;100262.25;5038680;28;20062;-59
2023/02/16 08:04:07;;;;;;;36.40;18.27;;;;;;;0.46;93.42;100260.66;5038168;28;20387;-59
2023/02/16 08:06:35;;;;;;;35.40;17.83;;;;;;;0.69;92.23;100262.81;5040274;28;20519;-59
2023/02/16 08:09:01;;;;;;;39.50;18.80;;;;;;;1.36;90.84;100271.84;5038922;28;20033;-59
2023/02/16 08:11:26;;;;;;;43.22;20.00;;;;;;;1.29;89.96;100268.16;5045915;28;20049;-59
2023/02/16 08:13:52;;;;;;;46.13;19.20;;;;;;;1.83;89.17;100278.50;5044192;28;20068;-58
2023/02/16 08:16:22;;;;;;;42.63;20.15;;;;;;;0.86;90.83;100270.72;5043563;28;20037;-59
2023/02/16 08:18:49;;;;;;;49.90;19.88;;;;;;;0.36;97.25;100278.38;5045512;28;20510;-60
2023/02/16 08:21:19;;;;;;;48.30;20.50;;;;;;;0.28;99.76;100278.31;5043843;28;20030;-60
2023/02/16 08:23:46;;;;;;;47.22;20.65;;;;;;;0.00;100.00;100278.38;5033828;28;20029;-59
2023/02/16 08:26:13;;;;;;;54.90;21.80;;;;;;;-0.38;100.00;100277.56;5037809;28;20098;-59
2023/02/16 08:28:44;;;;;;;47.83;21.48;;;;;;;-0.58;100.00;100262.84;5038584;28;20029;-59
2023/02/16 08:31:13;;;;;;;47.40;23.50;;;;;;;-0.11;100.00;100260.09;5047920;28;20017;-59
2023/02/16 08:33:39;;;;;;;55.10;28.85;;;;;;;0.10;100.00;100258.03;5033297;28;20036;-59
2023/02/16 08:36:08;;;;;;;74.38;28.83;;;;;;;0.23;100.00;100268.22;5042537;28;20079;-61
2023/02/16 08:38:34;;;;;;;52.88;24.33;;;;;;;0.13;100.00;100273.53;5055300;28;20072;-60
2023/02/16 08:40:59;;;;;;;53.20;20.95;;;;;;;-0.06;100.00;100268.41;5040148;28;20076;-58
2023/02/16 08:43:25;;;;;;;45.45;22.33;;;;;;;-0.31;100.00;100275.19;5040637;28;20471;-59
2023/02/16 08:45:51;;;;;;;47.17;21.98;;;;;;;0.08;100.00;100272.34;5044600;28;20417;-59
2023/02/16 08:48:17;;;;;;;64.68;24.30;;;;;;;0.48;100.00;100265.81;5040824;28;20239;-59
2023/02/16 08:50:45;;;;;;;55.78;26.15;;;;;;;0.48;100.00;100266.63;5069926;28;20033;-59
2023/02/16 08:53:12;;;;;;;59.33;27.25;;;;;;;0.65;100.00;100272.88;5038309;28;20095;-59
2023/02/16 08:55:38;;;;;;;66.32;28.70;;;;;;;0.84;100.00;100266.56;5039926;28;20409;-59
2023/02/16 08:58:03;;;;;;;61.63;28.50;;;;;;;0.92;100.00;100263.97;5043299;28;20073;-59
2023/02/16 09:00:34;;;;;;;62.80;28.65;;;;;;;1.43;100.00;100272.06;5041786;28;20107;-59
2023/02/16 09:03:01;;;;;;;52.20;26.70;;;;;;;1.65;100.00;100265.38;5038200;28;20044;-59
2023/02/16 09:05:29;;;;;;;81.85;31.25;;;;;;;1.65;100.00;100265.38;5043986;28;20025;-59
2023/02/16 09:07:56;;;;;;;60.45;28.80;;;;;;;2.32;100.00;100260.94;5039197;28;20081;-59
2023/02/16 09:10:22;;;;;;;60.38;27.92;;;;;;;2.53;100.00;100256.97;5037599;28;20072;-59
2023/02/16 09:12:48;;;;;;;61.00;29.98;;;;;;;3.15;100.00;100262.53;5038588;28;20291;-59
2023/02/16 09:15:14;;;;;;;53.85;26.98;;;;;;;3.50;100.00;100252.50;5043438;28;20469;-59
2023/02/16 09:17:41;;;;;;;60.60;28.10;;;;;;;3.87;100.00;100257.16;5044233;28;20033;-59
2023/02/16 09:20:07;;;;;;;59.63;28.73;;;;;;;3.95;100.00;100269.53;5037860;28;20466;-59
2023/02/16 09:22:33;;;;;;;67.22;29.42;;;;;;;3.86;100.00;100267.94;5035962;28;20029;-59
2023/02/16 09:24:58;;;;;;;61.67;29.50;;;;;;;4.07;100.00;100276.13;5045477;28;20017;-59
2023/02/16 09:27:24;;;;;;;66.03;30.00;;;;;;;4.04;100.00;100271.16;5046771;28;20039;-59
2023/02/16 09:29:50;;;;;;;68.43;30.15;;;;;;;4.13;100.00;100273.75;5044153;28;20032;-59
2023/02/16 09:32:16;;;;;;;65.28;29.67;;;;;;;4.11;100.00;100266.78;5042775;28;20369;-59
2023/02/16 09:34:43;;;;;;;62.63;28.48;;;;;;;4.26;100.00;100274.00;5044050;28;20021;-59
2023/02/16 09:37:09;;;;;;;56.90;27.67;;;;;;;4.44;100.00;100266.59;5038967;28;20435;-59
2023/02/16 09:39:35;;;;;;;63.85;27.63;;;;;;;4.49;100.00;100269.53;5040399;28;20013;-59
2023/02/16 09:42:29;;;;;;;62.85;26.92;;;;;;;4.56;99.79;100258.19;5041250;28;20383;-59
2023/02/16 09:45:06;;;;;;;54.20;27.33;;;;;;;4.77;99.74;100258.38;5043470;28;20045;-59
2023/02/16 09:47:33;;;;;;;60.00;29.95;;;;;;;4.84;97.78;100256.66;5038082;28;20056;-59
2023/02/16 09:49:59;;;;;;;54.28;25.55;;;;;;;5.11;96.71;100259.69;5041682;28;20028;-59
2023/02/16 09:52:35;;;;;;;62.42;28.23;;;;;;;5.35;95.12;100259.44;5047355;28;20056;-59
2023/02/16 09:55:02;;;;;;;62.20;29.25;;;;;;;5.15;94.45;100258.34;5032367;28;20495;-59
2023/02/16 09:57:31;;;;;;;57.03;27.50;;;;;;;5.27;95.10;100270.19;5046031;28;20380;-59
2023/02/16 10:00:03;;;;;;;60.45;27.40;;;;;;;5.26;95.66;100271.16;5034375;28;20029;-59
2023/02/16 10:02:31;;;;;;;43.08;20.00;;;;;;;4.94;96.08;100267.84;5041979;28;20063;-59
2023/02/16 10:05:03;;;;;;;60.90;27.35;;;;;;;5.01;95.97;100264.44;5039924;28;20022;-59
2023/02/16 10:07:38;;;;;;;65.45;29.70;;;;;;;5.19;95.89;100259.59;5035081;28;20113;-59
2023/02/16 10:10:06;;;;;;;62.22;28.27;;;;;;;5.52;93.75;100251.28;5041144;28;20095;-59
2023/02/16 10:12:37;;;;;;;62.83;27.42;;;;;;;5.65;93.07;100254.13;5041356;28;20035;-59
2023/02/16 10:15:06;;;;;;;61.50;29.00;;;;;;;5.73;92.33;100256.66;5041507;28;20384;-59
2023/02/16 10:17:34;;;;;;;56.10;25.67;;;;;;;5.54;92.90;100255.41;5045264;28;20028;-59
2023/02/16 10:20:13;;;;;;;46.85;23.90;;;;;;;5.34;93.51;100241.84;5036756;28;20031;-59
2023/02/16 10:22:47;;;;;;;52.85;24.75;;;;;;;5.86;90.81;100247.19;5040245;28;20032;-58
2023/02/16 10:25:19;;;;;;;58.00;27.08;;;;;;;6.62;87.78;100244.97;5033201;28;20029;-59
2023/02/16 10:27:47;;;;;;;57.70;28.02;;;;;;;6.99;85.34;100249.16;5045573;28;20029;-59
2023/02/16 10:30:19;;;;;;;61.10;28.58;;;;;;;7.80;83.38;100243.22;5042055;28;20425;-58
2023/02/16 10:32:55;;;;;;;49.25;23.27;;;;;;;6.81;84.26;100246.13;5042901;28;20551;-59
2023/02/16 10:35:48;;;;;;;41.83;22.42;;;;;;;6.87;84.91;100246.19;5040195;28;20094;-60
2023/02/16 10:38:19;;;;;;;55.50;26.05;;;;;;;7.68;82.24;100244.81;5038950;28;20038;-58
2023/02/16 10:41:07;;;;;;;51.97;22.80;;;;;;;7.46;81.31;100236.94;5048530;28;20044;-58
2023/02/16 10:43:36;;;;;;;51.20;25.02;;;;;;;7.30;82.25;100247.91;5029575;28;20424;-58
2023/02/16 10:46:02;;;;;;;41.90;20.17;;;;;;;7.15;82.93;100260.53;5033848;28;20029;-61
2023/02/16 10:48:27;;;;;;;56.40;27.60;;;;;;;8.31;78.47;100253.47;5039413;28;20024;-60
2023/02/16 10:51:02;;;;;;;50.08;25.63;;;;;;;7.86;80.22;100253.13;5047820;28;20035;-60
2023/02/16 10:53:31;;;;;;;53.65;26.55;;;;;;;7.96;80.40;100258.91;5046566;28;20579;-59
2023/02/16 10:55:56;;;;;;;55.10;25.92;;;;;;;8.02;80.28;100259.13;5045091;28;20033;-59
2023/02/16 10:58:25;;;;;;;44.40;21.73;;;;;;;8.05;80.00;100253.38;5042141;28;20467;-59
2023/02/16 11:00:55;;;;;;;53.83;23.75;;;;;;;7.80;80.91;100237.88;5042077;28;20083;-59
2023/02/16 11:03:23;;;;;;;54.20;24.55;;;;;;;7.70;82.16;100232.09;5039282;28;20045;-59
2023/02/16 11:05:48;;;;;;;46.58;22.27;;;;;;;7.94;79.12;100246.78;5041148;28;20560;-59
2023/02/16 11:08:13;;;;;;;53.53;26.13;;;;;;;8.88;77.50;100237.06;5031987;28;20040;-59
2023/02/16 11:10:49;;;;;;;50.60;24.90;;;;;;;8.38;78.06;100240.91;5034780;28;20503;-59
2023/02/16 11:13:32;;;;;;;54.88;26.88;;;;;;;8.54;78.32;100233.59;5049301;28;20037;-59
2023/02/16 11:16:00;;;;;;;46.88;23.13;;;;;;;8.27;78.87;100238.84;5039415;28;20535;-59
2023/02/16 11:18:30;;;;;;;52.63;25.02;;;;;;;8.62;77.18;100234.19;5032665;28;20059;-59
2023/02/16 11:20:56;;;;;;;49.40;24.80;;;;;;;8.68;78.07;100240.56;5033321;28;20029;-59
2023/02/16 11:23:21;;;;;;;46.83;24.27;;;;;;;8.29;77.88;100236.00;5042696;28;20471;-59
2023/02/16 11:26:01;;;;;;;51.15;26.15;;;;;;;8.51;79.41;100242.84;5042924;28;20025;-59
2023/02/16 11:28:43;;;;;;;45.58;22.95;;;;;;;8.17;79.43;100231.22;5036932;28;20021;-59
2023/02/16 11:31:45;;;;;;;52.75;28.05;;;;;;;8.67;77.59;100233.59;5039919;28;20025;-58
2023/02/16 11:34:30;;;;;;;51.63;23.55;;;;;;;7.89;81.18;100231.38;5034382;28;20037;-59
2023/02/16 11:37:23;;;;;;;49.08;24.00;;;;;;;8.32;79.29;100227.56;5030697;28;20055;-59
2023/02/16 11:39:53;;;;;;;54.25;25.33;;;;;;;8.38;78.88;100224.88;5024529;28;20086;-59
2023/02/16 11:42:27;;;;;;;46.38;24.55;;;;;;;8.53;79.39;100232.75;5024018;28;20036;-59
2023/02/16 11:44:54;;;;;;;46.63;24.23;;;;;;;8.31;79.79;100234.75;5041254;28;20506;-59
2023/02/16 11:47:39;;;;;;;51.13;24.40;;;;;;;8.36;80.20;100218.94;5034268;28;20547;-59
2023/02/16 11:50:22;;;;;;;41.63;21.42;;;;;;;7.67;81.60;100221.84;5045997;28;20040;-59
2023/02/16 11:52:52;;;;;;;52.17;24.85;;;;;;;7.92;81.32;100214.13;5043541;28;20032;-59
2023/02/16 11:55:19;;;;;;;48.70;24.55;;;;;;;7.68;83.11;100220.81;5044980;28;20259;-59